createdAt,value
2023-04-09T00:01:06.654Z,100.00
2023-04-09T00:03:35.245Z,100.00
2023-04-09T00:06:03.538Z,100.00
2023-04-09T00:08:31.949Z,100.00
2023-04-09T00:11:00.441Z,100.00
2023-04-09T00:13:37.915Z,100.00
2023-04-09T00:16:09.448Z,100.00
2023-04-09T00:18:37.678Z,100.00
2023-04-09T00:21:06.978Z,100.00
2023-04-09T00:23:35.254Z,100.00
2023-04-09T00:26:03.632Z,100.00
2023-04-09T00:28:33.142Z,100.00
2023-04-09T00:31:01.440Z,100.00
2023-04-09T00:33:31.040Z,100.00
2023-04-09T00:35:59.397Z,100.00
2023-04-09T00:38:27.628Z,100.00
2023-04-09T00:40:56.102Z,100.00
2023-04-09T00:43:24.345Z,100.00
2023-04-09T00:45:52.576Z,100.00
2023-04-09T00:48:21.739Z,100.00
2023-04-09T00:50:51.418Z,100.00
2023-04-09T00:53:19.828Z,100.00
2023-04-09T00:55:48.031Z,100.00
2023-04-09T00:58:17.458Z,100.00
2023-04-09T01:00:45.723Z,100.00
2023-04-09T01:03:14.247Z,100.00
2023-04-09T01:05:47.857Z,100.00
2023-04-09T01:08:20.289Z,100.00
2023-04-09T01:11:00.364Z,100.00
2023-04-09T01:13:31.537Z,100.00
2023-04-09T01:16:01.794Z,100.00
2023-04-09T01:18:31.920Z,100.00
2023-04-09T01:21:03.959Z,100.00
2023-04-09T01:23:38.237Z,100.00
2023-04-09T01:26:10.704Z,100.00
2023-04-09T01:28:43.689Z,100.00
2023-04-09T01:31:13.591Z,100.00
2023-04-09T01:33:42.618Z,100.00
2023-04-09T01:36:12.303Z,100.00
2023-04-09T01:38:41.268Z,100.00
2023-04-09T01:41:10.604Z,100.00
2023-04-09T01:43:39.089Z,100.00
2023-04-09T01:46:09.092Z,100.00
2023-04-09T01:48:38.184Z,100.00
2023-04-09T01:51:06.689Z,100.00
2023-04-09T01:53:35.113Z,100.00
2023-04-09T01:56:03.857Z,100.00
2023-04-09T01:58:34.129Z,100.00
2023-04-09T02:01:06.401Z,100.00
2023-04-09T02:03:38.024Z,100.00
2023-04-09T02:06:08.630Z,100.00
2023-04-09T02:08:37.823Z,100.00
2023-04-09T02:11:10.852Z,100.00
2023-04-09T02:13:41.408Z,100.00
2023-04-09T02:16:11.992Z,100.00
2023-04-09T02:18:41.836Z,100.00
2023-04-09T02:21:13.576Z,100.00
2023-04-09T02:23:41.935Z,100.00
2023-04-09T02:26:10.124Z,100.00
2023-04-09T02:28:38.353Z,100.00
2023-04-09T02:31:06.567Z,100.00
2023-04-09T02:33:34.871Z,100.00
2023-04-09T02:36:04.711Z,100.00
2023-04-09T02:38:33.075Z,100.00
2023-04-09T02:41:01.369Z,100.00
2023-04-09T02:43:29.565Z,100.00
2023-04-09T02:45:58.358Z,100.00
2023-04-09T02:48:26.680Z,100.00
2023-04-09T02:50:54.950Z,100.00
2023-04-09T02:53:25.342Z,100.00
2023-04-09T02:55:53.641Z,100.00
2023-04-09T02:58:21.993Z,100.00
2023-04-09T03:00:50.285Z,100.00
2023-04-09T03:03:18.552Z,100.00
2023-04-09T03:05:46.894Z,100.00
2023-04-09T03:08:15.967Z,100.00
2023-04-09T03:10:45.498Z,100.00
2023-04-09T03:13:13.770Z,100.00
2023-04-09T03:15:42.105Z,100.00
2023-04-09T03:18:10.318Z,100.00
2023-04-09T03:20:38.951Z,100.00
2023-04-09T03:23:07.094Z,100.00
2023-04-09T03:25:35.265Z,100.00
2023-04-09T03:28:04.939Z,100.00
2023-04-09T03:30:33.244Z,100.00
2023-04-09T03:33:01.695Z,100.00
2023-04-09T03:35:30.036Z,100.00
2023-04-09T03:37:58.326Z,100.00
2023-04-09T03:40:26.730Z,100.00
2023-04-09T03:42:54.961Z,100.00
2023-04-09T03:45:24.692Z,100.00
2023-04-09T03:47:52.841Z,100.00
2023-04-09T03:50:21.411Z,100.00
2023-04-09T03:52:49.673Z,100.00
2023-04-09T03:55:17.825Z,100.00
2023-04-09T03:57:46.190Z,100.00
2023-04-09T04:00:14.443Z,100.00
2023-04-09T04:02:44.084Z,100.00
2023-04-09T04:05:12.694Z,100.00
2023-04-09T04:07:43.770Z,100.00
2023-04-09T04:10:12.542Z,100.00
2023-04-09T04:12:40.817Z,100.00
2023-04-09T04:15:09.416Z,100.00
2023-04-09T04:17:37.762Z,100.00
2023-04-09T04:20:08.050Z,100.00
2023-04-09T04:22:36.324Z,100.00
2023-04-09T04:25:04.751Z,100.00
2023-04-09T04:27:33.067Z,100.00
2023-04-09T04:30:02.131Z,100.00
2023-04-09T04:32:30.495Z,100.00
2023-04-09T04:34:58.691Z,100.00
2023-04-09T04:37:28.632Z,100.00
2023-04-09T04:39:57.017Z,100.00
2023-04-09T04:42:25.605Z,100.00
2023-04-09T04:44:53.962Z,100.00
2023-04-09T04:47:22.323Z,100.00
2023-04-09T04:49:50.582Z,100.00
2023-04-09T04:52:19.162Z,100.00
2023-04-09T04:54:48.746Z,100.00
2023-04-09T04:57:17.171Z,100.00
2023-04-09T04:59:45.685Z,100.00
2023-04-09T05:02:15.292Z,100.00
2023-04-09T05:04:43.737Z,100.00
2023-04-09T05:07:11.956Z,100.00
2023-04-09T05:09:40.163Z,100.00
2023-04-09T05:12:09.754Z,100.00
2023-04-09T05:14:37.965Z,100.00
2023-04-09T05:17:06.261Z,100.00
2023-04-09T05:19:34.699Z,100.00
2023-04-09T05:22:02.870Z,100.00
2023-04-09T05:24:31.053Z,100.00
2023-04-09T05:26:59.350Z,100.00
2023-04-09T05:29:29.209Z,100.00
2023-04-09T05:31:57.401Z,100.00
2023-04-09T05:34:25.648Z,100.00
2023-04-09T05:36:55.518Z,100.00
2023-04-09T05:39:23.715Z,100.00
2023-04-09T05:41:54.546Z,100.00
2023-04-09T05:44:22.815Z,100.00
2023-04-09T05:46:52.419Z,100.00
2023-04-09T05:49:20.714Z,100.00
2023-04-09T05:51:49.816Z,100.00
2023-04-09T05:54:18.068Z,100.00
2023-04-09T05:56:46.378Z,100.00
2023-04-09T05:59:14.626Z,100.00
2023-04-09T06:01:43.095Z,100.00
2023-04-09T06:04:18.182Z,100.00
2023-04-09T06:06:47.154Z,100.00
2023-04-09T06:09:15.333Z,100.00
2023-04-09T06:11:44.935Z,100.00
2023-04-09T06:14:16.588Z,100.00
2023-04-09T06:16:45.022Z,100.00
2023-04-09T06:19:16.656Z,100.00
2023-04-09T06:21:44.938Z,100.00
2023-04-09T06:24:13.138Z,100.00
2023-04-09T06:26:41.635Z,100.00
2023-04-09T06:29:09.864Z,100.00
2023-04-09T06:31:38.132Z,100.00
2023-04-09T06:34:06.691Z,100.00
2023-04-09T06:36:37.731Z,100.00
2023-04-09T06:39:06.677Z,99.43
2023-04-09T06:41:34.974Z,98.42
2023-04-09T06:44:03.215Z,97.95
2023-04-09T06:46:31.648Z,97.83
2023-04-09T06:48:59.940Z,97.22
2023-04-09T06:51:28.452Z,96.14
2023-04-09T06:53:58.042Z,95.44
2023-04-09T06:56:26.433Z,94.47
2023-04-09T06:58:54.891Z,93.88
2023-04-09T07:01:23.313Z,93.54
2023-04-09T07:03:52.182Z,92.72
2023-04-09T07:06:20.897Z,91.83
2023-04-09T07:08:49.047Z,91.06
2023-04-09T07:11:18.650Z,89.44
2023-04-09T07:13:46.914Z,87.72
2023-04-09T07:16:15.273Z,84.98
2023-04-09T07:18:43.718Z,86.32
2023-04-09T07:21:12.114Z,84.92
2023-04-09T07:23:40.666Z,84.31
2023-04-09T07:26:08.869Z,77.93
2023-04-09T07:28:38.464Z,71.21
2023-04-09T07:31:07.806Z,64.87
2023-04-09T07:33:36.222Z,61.33
2023-04-09T07:36:04.732Z,59.97
2023-04-09T07:38:33.167Z,57.54
2023-04-09T07:41:01.455Z,53.89
2023-04-09T07:43:32.637Z,50.52
2023-04-09T07:46:02.559Z,47.44
2023-04-09T07:48:30.804Z,43.02
2023-04-09T07:51:19.523Z,41.74
2023-04-09T07:53:47.787Z,39.37
2023-04-09T07:56:15.946Z,38.75
2023-04-09T07:58:44.686Z,39.57
2023-04-09T08:01:14.284Z,40.07
2023-04-09T08:03:43.334Z,41.80
2023-04-09T08:06:12.084Z,39.44
2023-04-09T08:08:40.320Z,40.64
2023-04-09T08:11:08.597Z,38.77
2023-04-09T08:13:36.819Z,38.51
2023-04-09T08:16:05.181Z,36.24
2023-04-09T08:18:34.916Z,35.57
2023-04-09T08:21:05.681Z,35.69
2023-04-09T08:23:53.833Z,35.94
2023-04-09T08:26:22.335Z,33.77
2023-04-09T08:28:52.364Z,30.18
2023-04-09T08:31:20.930Z,29.88
2023-04-09T08:33:50.519Z,28.75
2023-04-09T08:36:18.737Z,29.72
2023-04-09T08:38:47.613Z,30.21
2023-04-09T08:41:19.669Z,29.49
2023-04-09T08:43:57.850Z,26.62
2023-04-09T08:46:27.753Z,28.50
2023-04-09T08:48:57.583Z,29.61
2023-04-09T08:51:26.727Z,27.69
2023-04-09T08:53:57.151Z,31.83
2023-04-09T08:56:26.138Z,28.42
2023-04-09T08:58:54.995Z,28.55
2023-04-09T09:01:24.630Z,29.42
2023-04-09T09:03:55.435Z,27.63
2023-04-09T09:06:26.100Z,25.46
2023-04-09T09:09:01.124Z,25.64
2023-04-09T09:11:30.329Z,23.66
2023-04-09T09:13:59.180Z,23.32
2023-04-09T09:16:27.597Z,23.67
2023-04-09T09:18:57.161Z,24.18
2023-04-09T09:21:27.350Z,24.56
2023-04-09T09:23:56.544Z,24.73
2023-04-09T09:26:27.337Z,28.33
2023-04-09T09:28:56.345Z,24.55
2023-04-09T09:31:24.617Z,23.15
2023-04-09T09:33:53.783Z,22.21
2023-04-09T09:36:34.354Z,22.52
2023-04-09T09:39:05.316Z,23.04
2023-04-09T09:41:33.627Z,24.45
2023-04-09T09:44:03.305Z,23.33
2023-04-09T09:46:32.133Z,23.89
2023-04-09T09:49:00.583Z,24.17
2023-04-09T09:51:29.731Z,24.69
2023-04-09T09:53:59.782Z,24.35
2023-04-09T09:56:37.130Z,23.42
2023-04-09T09:59:08.395Z,24.30
2023-04-09T10:01:37.173Z,24.63
2023-04-09T10:04:07.141Z,23.70
2023-04-09T10:06:35.648Z,23.28
2023-04-09T10:09:06.808Z,23.74
2023-04-09T10:11:36.780Z,23.01
2023-04-09T10:14:05.714Z,20.70
2023-04-09T10:16:34.743Z,25.40
2023-04-09T10:19:03.357Z,25.65
2023-04-09T10:21:37.914Z,27.94
2023-04-09T10:24:08.113Z,27.81
2023-04-09T10:26:47.641Z,24.71
2023-04-09T10:29:16.453Z,22.24
2023-04-09T10:31:55.086Z,21.53
2023-04-09T10:34:28.583Z,22.04
2023-04-09T10:36:57.880Z,21.76
2023-04-09T10:39:29.980Z,22.99
2023-04-09T10:41:59.039Z,20.97
2023-04-09T10:44:28.008Z,21.96
2023-04-09T10:46:56.590Z,24.92
2023-04-09T10:49:25.444Z,26.92
2023-04-09T10:51:54.408Z,25.94
2023-04-09T10:54:56.015Z,25.33
2023-04-09T10:57:26.311Z,22.89
2023-04-09T10:59:55.249Z,25.91
2023-04-09T11:02:42.133Z,28.40
2023-04-09T11:05:19.169Z,24.57
2023-04-09T11:07:50.735Z,23.57
2023-04-09T11:10:20.532Z,23.13
2023-04-09T11:12:50.421Z,23.49
2023-04-09T11:15:19.291Z,21.36
2023-04-09T11:17:47.957Z,19.13
2023-04-09T11:20:17.478Z,18.04
2023-04-09T11:22:45.925Z,20.84
2023-04-09T11:25:18.585Z,25.82
2023-04-09T11:27:47.403Z,23.46
2023-04-09T11:30:16.937Z,19.23
2023-04-09T11:32:46.448Z,17.96
2023-04-09T11:35:15.598Z,20.93
2023-04-09T11:37:44.353Z,22.39
2023-04-09T11:40:16.723Z,22.20
2023-04-09T11:42:45.586Z,24.72
2023-04-09T11:45:14.212Z,25.69
2023-04-09T11:47:44.955Z,27.10
2023-04-09T11:50:13.945Z,28.01
2023-04-09T11:52:42.373Z,30.23
2023-04-09T11:55:11.320Z,28.46
2023-04-09T11:57:43.883Z,27.03
2023-04-09T12:00:13.294Z,25.73
2023-04-09T12:02:42.623Z,27.37
2023-04-09T12:05:14.254Z,25.37
2023-04-09T12:07:55.483Z,23.26
2023-04-09T12:10:27.810Z,20.68
2023-04-09T12:12:56.277Z,19.37
2023-04-09T12:15:25.301Z,19.47
2023-04-09T12:17:55.164Z,21.11
2023-04-09T12:20:33.921Z,20.13
2023-04-09T12:23:03.652Z,18.22
2023-04-09T12:25:32.028Z,19.93
2023-04-09T12:28:00.438Z,23.49
2023-04-09T12:30:28.817Z,22.06
2023-04-09T12:32:57.174Z,21.64
2023-04-09T12:35:26.011Z,23.67
2023-04-09T12:38:01.189Z,25.56
2023-04-09T12:40:29.506Z,27.45
2023-04-09T12:42:59.905Z,29.81
2023-04-09T12:45:30.774Z,30.48
2023-04-09T12:47:59.131Z,29.68
2023-04-09T12:50:28.256Z,25.38
2023-04-09T12:52:58.084Z,22.81
2023-04-09T12:55:26.297Z,22.72
2023-04-09T12:57:54.619Z,21.59
2023-04-09T13:00:22.926Z,21.94
2023-04-09T13:02:52.775Z,20.19
2023-04-09T13:05:22.937Z,19.28
2023-04-09T13:07:51.437Z,19.70
2023-04-09T13:10:21.159Z,20.14
2023-04-09T13:12:49.405Z,20.40
2023-04-09T13:15:17.796Z,22.90
2023-04-09T13:17:46.410Z,22.45
2023-04-09T13:20:14.977Z,22.17
2023-04-09T13:22:47.058Z,23.44
2023-04-09T13:25:15.591Z,24.38
2023-04-09T13:27:45.436Z,23.33
2023-04-09T13:30:13.818Z,22.89
2023-04-09T13:32:47.495Z,24.18
2023-04-09T13:35:16.015Z,22.96
2023-04-09T13:37:45.090Z,20.49
2023-04-09T13:40:13.825Z,18.66
2023-04-09T13:42:42.159Z,18.08
2023-04-09T13:45:12.384Z,20.22
2023-04-09T13:47:43.483Z,22.51
2023-04-09T13:50:13.928Z,26.98
2023-04-09T13:52:42.396Z,28.72
2023-04-09T13:55:11.500Z,29.69
2023-04-09T13:57:39.832Z,31.68
2023-04-09T14:00:09.120Z,30.29
2023-04-09T14:02:39.032Z,30.31
2023-04-09T14:05:07.787Z,28.58
2023-04-09T14:07:36.674Z,26.22
2023-04-09T14:10:16.373Z,25.99
2023-04-09T14:12:44.834Z,24.35
2023-04-09T14:15:14.465Z,23.94
2023-04-09T14:17:44.340Z,24.89
2023-04-09T14:20:14.885Z,23.89
2023-04-09T14:22:49.206Z,24.88
2023-04-09T14:25:17.693Z,25.18
2023-04-09T14:27:46.320Z,25.15
2023-04-09T14:30:14.802Z,26.06
2023-04-09T14:32:44.704Z,27.24
2023-04-09T14:35:13.094Z,26.69
2023-04-09T14:37:41.632Z,26.00
2023-04-09T14:40:10.258Z,26.11
2023-04-09T14:42:38.484Z,25.53
2023-04-09T14:45:07.072Z,25.93
2023-04-09T14:47:35.383Z,26.71
2023-04-09T14:50:08.530Z,28.99
2023-04-09T14:52:36.748Z,31.65
2023-04-09T14:55:05.576Z,34.05
2023-04-09T14:57:36.249Z,33.11
2023-04-09T15:00:04.703Z,32.77
2023-04-09T15:02:35.064Z,32.06
2023-04-09T15:05:03.784Z,32.09
2023-04-09T15:07:33.410Z,32.47
2023-04-09T15:10:01.709Z,32.74
2023-04-09T15:12:30.006Z,33.58
2023-04-09T15:14:58.588Z,34.34
2023-04-09T15:17:27.194Z,34.01
2023-04-09T15:19:58.662Z,35.34
2023-04-09T15:22:28.314Z,35.25
2023-04-09T15:24:57.851Z,34.91
2023-04-09T15:27:26.190Z,34.97
2023-04-09T15:29:54.375Z,35.67
2023-04-09T15:32:22.588Z,36.13
2023-04-09T15:34:51.022Z,35.64
2023-04-09T15:37:19.237Z,36.80
2023-04-09T15:39:49.300Z,36.49
2023-04-09T15:42:22.506Z,36.45
2023-04-09T15:44:51.137Z,36.25
2023-04-09T15:47:19.400Z,34.94
2023-04-09T15:49:49.944Z,35.54
2023-04-09T15:52:18.193Z,35.68
2023-04-09T15:54:46.399Z,35.36
2023-04-09T15:57:15.334Z,36.05
2023-04-09T15:59:44.872Z,36.46
2023-04-09T16:02:13.104Z,37.04
2023-04-09T16:04:41.477Z,36.26
2023-04-09T16:07:10.789Z,37.70
2023-04-09T16:09:39.103Z,37.58
2023-04-09T16:12:07.792Z,37.74
2023-04-09T16:14:36.017Z,37.78
2023-04-09T16:17:05.573Z,38.31
2023-04-09T16:19:33.958Z,38.31
2023-04-09T16:22:02.465Z,38.77
2023-04-09T16:24:31.627Z,38.31
2023-04-09T16:27:01.429Z,37.94
2023-04-09T16:29:29.651Z,38.29
2023-04-09T16:31:58.607Z,38.62
2023-04-09T16:34:28.223Z,38.66
2023-04-09T16:36:56.482Z,38.85
2023-04-09T16:39:24.802Z,38.05
2023-04-09T16:41:53.116Z,38.19
2023-04-09T16:44:21.488Z,38.89
2023-04-09T16:46:49.705Z,38.27
2023-04-09T16:49:17.918Z,38.76
2023-04-09T16:51:47.596Z,39.25
2023-04-09T16:54:15.817Z,38.93
2023-04-09T16:56:44.091Z,39.46
2023-04-09T16:59:12.330Z,40.07
2023-04-09T17:01:40.770Z,39.87
2023-04-09T17:04:09.344Z,40.41
2023-04-09T17:06:37.682Z,40.08
2023-04-09T17:09:07.402Z,39.75
2023-04-09T17:11:37.356Z,39.96
2023-04-09T17:14:12.132Z,40.12
2023-04-09T17:16:43.411Z,40.59
2023-04-09T17:19:13.793Z,40.63
2023-04-09T17:21:42.101Z,40.32
2023-04-09T17:24:11.678Z,40.48
2023-04-09T17:26:39.936Z,41.08
2023-04-09T17:29:08.329Z,41.19
2023-04-09T17:31:36.550Z,41.56
2023-04-09T17:34:04.946Z,42.07
2023-04-09T17:36:33.187Z,41.27
2023-04-09T17:39:01.725Z,41.76
2023-04-09T17:41:31.490Z,41.46
2023-04-09T17:43:59.784Z,41.68
2023-04-09T17:46:28.631Z,41.76
2023-04-09T17:48:56.993Z,42.10
2023-04-09T17:51:25.206Z,42.34
2023-04-09T17:53:54.174Z,42.39
2023-04-09T17:56:23.486Z,42.83
2023-04-09T17:58:53.477Z,43.76
2023-04-09T18:01:22.059Z,44.11
2023-04-09T18:03:51.555Z,43.93
2023-04-09T18:06:20.135Z,43.89
2023-04-09T18:08:49.950Z,43.94
2023-04-09T18:11:18.398Z,44.00
2023-04-09T18:13:46.813Z,44.16
2023-04-09T18:16:17.496Z,44.12
2023-04-09T18:18:46.115Z,44.67
2023-04-09T18:21:15.112Z,44.49
2023-04-09T18:23:43.538Z,44.63
2023-04-09T18:26:11.749Z,45.31
2023-04-09T18:28:40.155Z,45.51
2023-04-09T18:31:08.510Z,45.76
2023-04-09T18:33:38.143Z,45.92
2023-04-09T18:36:06.709Z,46.68
2023-04-09T18:38:36.221Z,47.76
2023-04-09T18:41:04.575Z,47.09
2023-04-09T18:43:32.900Z,47.53
2023-04-09T18:46:01.289Z,47.37
2023-04-09T18:48:29.478Z,48.33
2023-04-09T18:50:59.745Z,48.67
2023-04-09T18:53:28.036Z,49.10
2023-04-09T18:55:56.547Z,49.95
2023-04-09T18:58:26.279Z,49.71
2023-04-09T19:00:54.721Z,50.34
2023-04-09T19:03:23.779Z,50.77
2023-04-09T19:05:54.051Z,51.46
2023-04-09T19:08:23.604Z,52.28
2023-04-09T19:10:53.526Z,53.30
2023-04-09T19:13:21.893Z,53.52
2023-04-09T19:15:50.499Z,54.40
2023-04-09T19:18:18.801Z,55.32
2023-04-09T19:20:47.092Z,55.36
2023-04-09T19:23:15.591Z,56.31
2023-04-09T19:25:45.140Z,57.18
2023-04-09T19:28:13.587Z,57.96
2023-04-09T19:30:41.870Z,58.39
2023-04-09T19:33:10.243Z,58.44
2023-04-09T19:35:40.646Z,58.37
2023-04-09T19:38:09.091Z,58.45
2023-04-09T19:40:37.275Z,59.12
2023-04-09T19:43:07.091Z,59.00
2023-04-09T19:45:35.699Z,59.78
2023-04-09T19:48:06.773Z,59.47
2023-04-09T19:50:35.512Z,59.06
2023-04-09T19:53:04.367Z,59.14
2023-04-09T19:55:34.725Z,58.84
2023-04-09T19:58:03.659Z,59.32
2023-04-09T20:00:33.471Z,59.56
2023-04-09T20:03:02.579Z,59.75
2023-04-09T20:05:30.965Z,59.97
2023-04-09T20:07:59.270Z,60.30
2023-04-09T20:10:27.499Z,60.71
2023-04-09T20:12:55.741Z,61.56
2023-04-09T20:15:24.054Z,61.77
2023-04-09T20:17:54.126Z,62.36
2023-04-09T20:20:22.353Z,62.59
2023-04-09T20:22:55.694Z,64.11
2023-04-09T20:25:24.856Z,64.46
2023-04-09T20:27:53.770Z,65.27
2023-04-09T20:30:22.471Z,65.27
2023-04-09T20:32:50.771Z,65.77
2023-04-09T20:35:20.811Z,66.40
2023-04-09T20:37:49.865Z,66.55
2023-04-09T20:40:18.190Z,65.05
2023-04-09T20:42:46.428Z,65.45
2023-04-09T20:45:14.587Z,65.36
2023-04-09T20:47:42.959Z,64.43
2023-04-09T20:50:11.796Z,63.91
2023-04-09T20:52:41.761Z,65.43
2023-04-09T20:55:10.190Z,66.29
2023-04-09T20:57:38.373Z,65.90
2023-04-09T21:00:07.296Z,65.95
2023-04-09T21:02:40.191Z,65.65
2023-04-09T21:07:44.972Z,65.83
2023-04-09T21:10:13.230Z,65.52
2023-04-09T21:12:41.441Z,65.66
2023-04-09T21:15:11.053Z,65.04
2023-04-09T21:17:39.317Z,65.13
2023-04-09T21:20:19.460Z,65.04
2023-04-09T21:22:50.879Z,65.83
2023-04-09T21:25:19.255Z,65.28
2023-04-09T21:27:47.454Z,65.56
2023-04-09T21:30:15.824Z,65.35
2023-04-09T21:32:44.116Z,64.69
2023-04-09T21:35:12.473Z,64.99
2023-04-09T21:37:40.779Z,65.03
2023-04-09T21:40:10.852Z,65.20
2023-04-09T21:42:39.287Z,65.61
2023-04-09T21:45:08.242Z,65.93
2023-04-09T21:47:36.749Z,66.20
2023-04-09T21:50:05.255Z,66.57
2023-04-09T21:52:34.118Z,66.00
2023-04-09T21:55:02.385Z,66.75
2023-04-09T21:57:32.047Z,67.06
2023-04-09T22:00:00.541Z,67.30
2023-04-09T22:02:29.028Z,67.71
2023-04-09T22:04:59.519Z,67.83
2023-04-09T22:07:28.140Z,67.95
2023-04-09T22:09:57.786Z,68.03
2023-04-09T22:12:25.989Z,68.86
2023-04-09T22:14:56.100Z,68.50
2023-04-09T22:17:24.339Z,69.28
2023-04-09T22:19:52.783Z,68.71
2023-04-09T22:22:21.119Z,69.46
2023-04-09T22:24:49.329Z,69.18
2023-04-09T22:27:17.539Z,69.59
2023-04-09T22:29:46.041Z,69.55
2023-04-09T22:32:15.816Z,70.12
2023-04-09T22:34:44.037Z,69.69
2023-04-09T22:37:12.346Z,71.06
2023-04-09T22:39:40.668Z,70.82
2023-04-09T22:42:10.247Z,70.62
2023-04-09T22:44:38.581Z,70.76
2023-04-09T22:47:07.134Z,71.48
2023-04-09T22:49:36.665Z,70.94
2023-04-09T22:52:05.679Z,71.87
2023-04-09T22:54:33.866Z,71.91
2023-04-09T22:57:02.341Z,73.06
2023-04-09T22:59:39.179Z,73.44
2023-04-09T23:02:08.276Z,73.95
2023-04-09T23:04:37.936Z,75.11
2023-04-09T23:07:06.234Z,75.36
2023-04-09T23:09:34.477Z,75.15
2023-04-09T23:12:03.220Z,74.95
2023-04-09T23:14:31.553Z,75.33
2023-04-09T23:16:59.833Z,74.14
2023-04-09T23:19:28.083Z,74.46
2023-04-09T23:21:57.707Z,75.07
2023-04-09T23:24:25.954Z,75.09
2023-04-09T23:26:54.238Z,74.38
2023-04-09T23:29:22.444Z,74.27
2023-04-09T23:31:50.890Z,74.53
2023-04-09T23:34:19.206Z,74.43
2023-04-09T23:36:47.406Z,74.88
2023-04-09T23:39:16.933Z,75.63
2023-04-09T23:41:45.334Z,75.71
2023-04-09T23:44:13.629Z,75.53
2023-04-09T23:46:42.096Z,75.87
2023-04-09T23:49:10.386Z,75.88
2023-04-09T23:51:38.598Z,76.02
2023-04-09T23:54:07.033Z,76.18
2023-04-09T23:56:37.398Z,76.44
2023-04-09T23:59:05.716Z,76.41
